Time;durP1;ratioP1;P1;durP2;ratioP2;P2;SDS_P1;SDS_P2;PMS_P1;PMS_P2;Temp;Humidity;BMP_temperature;BMP_pressure;BME280_temperature;BME280_humidity;BME280_pressure;Samples;Min_cycle;Max_cycle;Signal;HPM_P1;HPM_P2
2022/06/04 00:01:01;;;;;;;1.98;1.75;;;20.80;99.90;;;;;;5035605;28;20221;-89
2022/06/04 00:03:30;;;;;;;1.88;1.77;;;20.80;99.90;;;;;;5035844;28;20276;-88
2022/06/04 00:05:59;;;;;;;1.50;1.40;;;20.80;99.90;;;;;;5015958;28;20225;-88
2022/06/04 00:08:29;;;;;;;1.80;1.70;;;20.70;99.90;;;;;;5024878;28;20306;-90
2022/06/04 00:16:31;;;;;;;2.15;2.05;;;20.70;99.90;;;;;;5035350;28;20259;-88
2022/06/04 00:19:00;;;;;;;1.83;1.73;;;20.60;99.90;;;;;;5035775;28;20321;-89
2022/06/04 00:21:29;;;;;;;2.35;2.15;;;20.60;99.90;;;;;;5035465;28;20291;-88
2022/06/04 00:23:57;;;;;;;2.88;2.13;;;20.60;99.90;;;;;;5035459;28;20198;-89
2022/06/04 00:26:25;;;;;;;2.03;1.92;;;20.50;99.90;;;;;;5035515;28;20282;-89
2022/06/04 00:28:55;;;;;;;1.75;1.65;;;20.50;99.90;;;;;;5035193;28;20223;-89
2022/06/04 00:31:24;;;;;;;2.13;2.00;;;20.50;99.90;;;;;;5034937;28;20226;-88
2022/06/04 00:33:53;;;;;;;2.22;2.03;;;20.50;99.90;;;;;;5035343;28;20214;-89
2022/06/04 00:36:22;;;;;;;2.38;1.70;;;20.50;99.90;;;;;;5034796;28;20238;-88
2022/06/04 00:38:52;;;;;;;1.70;1.60;;;20.50;99.90;;;;;;5028455;28;20234;-89
2022/06/04 00:41:26;;;;;;;2.10;1.90;;;20.50;99.90;;;;;;5035001;28;20187;-89
2022/06/04 00:44:54;;;;;;;1.50;1.50;;;20.50;99.90;;;;;;5034916;28;20210;-89
2022/06/04 00:47:26;;;;;;;1.95;1.85;;;20.40;99.90;;;;;;5035345;28;20194;-89
2022/06/04 00:49:55;;;;;;;1.77;1.67;;;20.40;99.90;;;;;;5034746;28;20266;-88
2022/06/04 00:52:25;;;;;;;2.33;2.13;;;20.40;99.90;;;;;;5034506;28;20253;-88
2022/06/04 00:54:57;;;;;;;2.08;1.90;;;20.40;99.90;;;;;;5034711;28;20210;-89
2022/06/04 00:58:03;;;;;;;2.00;1.90;;;20.40;99.90;;;;;;5031275;28;20219;-88
2022/06/04 01:00:38;;;;;;;1.63;1.52;;;20.40;99.90;;;;;;5034303;28;20202;-89
2022/06/04 01:03:21;;;;;;;2.40;2.03;;;20.30;99.90;;;;;;5034582;28;20289;-88
2022/06/04 01:06:20;;;;;;;2.00;1.90;;;20.30;99.90;;;;;;5035002;28;20264;-89
2022/06/04 01:09:12;;;;;;;2.22;2.13;;;20.30;99.90;;;;;;5033733;28;20309;-89
2022/06/04 01:12:11;;;;;;;1.50;1.48;;;20.20;99.90;;;;;;5034069;28;20300;-88
2022/06/04 01:15:02;;;;;;;3.33;2.25;;;20.20;99.90;;;;;;5014837;28;20195;-89
2022/06/04 01:17:44;;;;;;;2.28;1.83;;;20.20;99.90;;;;;;5019878;28;20194;-89
2022/06/04 01:20:22;;;;;;;1.90;1.80;;;20.10;99.90;;;;;;5034129;28;20233;-88
2022/06/04 01:23:32;;;;;;;2.33;2.03;;;20.10;99.90;;;;;;5033996;28;20199;-89
2022/06/04 01:26:35;;;;;;;2.13;1.92;;;20.10;99.90;;;;;;5033789;28;20206;-89
2022/06/04 01:29:10;;;;;;;1.65;1.55;;;20.10;99.90;;;;;;5031300;28;20249;-89
2022/06/04 01:31:45;;;;;;;2.75;2.42;;;20.10;99.90;;;;;;5031551;28;20217;-89
2022/06/04 01:34:16;;;;;;;1.77;1.67;;;20.10;99.90;;;;;;5034018;28;20221;-89
2022/06/04 01:36:50;;;;;;;1.70;1.60;;;20.10;99.90;;;;;;5034071;28;20286;-89
2022/06/04 01:39:23;;;;;;;2.85;2.42;;;20.00;99.90;;;;;;5034153;28;20221;-89
2022/06/04 01:41:55;;;;;;;1.65;1.55;;;20.00;99.90;;;;;;5033857;28;20234;-89
2022/06/04 01:44:29;;;;;;;1.77;1.67;;;20.00;99.90;;;;;;5032556;28;20207;-88
2022/06/04 01:47:00;;;;;;;2.03;1.92;;;20.00;99.90;;;;;;5033970;28;20277;-89
2022/06/04 01:49:33;;;;;;;3.22;2.50;;;19.90;99.90;;;;;;5014595;28;20234;-90
2022/06/04 01:52:06;;;;;;;1.83;1.73;;;19.90;99.90;;;;;;5018345;28;20288;-89
2022/06/04 01:54:39;;;;;;;1.90;1.80;;;19.90;99.90;;;;;;5033618;28;20264;-88
2022/06/04 01:57:14;;;;;;;1.77;1.67;;;19.90;99.90;;;;;;5033291;28;20245;-89
2022/06/04 01:59:47;;;;;;;1.80;1.70;;;19.90;99.90;;;;;;5033638;28;20202;-89
2022/06/04 02:02:19;;;;;;;2.45;2.25;;;19.90;99.90;;;;;;5033385;28;20187;-89
2022/06/04 02:04:52;;;;;;;2.30;1.83;;;19.90;99.90;;;;;;5033943;28;20203;-89
2022/06/04 02:07:34;;;;;;;2.35;2.15;;;19.90;99.90;;;;;;5033891;28;20218;-90
2022/06/04 02:10:07;;;;;;;5.95;2.15;;;19.90;99.90;;;;;;5033377;28;20298;-88
2022/06/04 02:12:38;;;;;;;2.72;2.45;;;19.90;99.90;;;;;;5033629;28;20215;-88
2022/06/04 02:15:09;;;;;;;1.80;1.70;;;19.80;99.90;;;;;;5033571;28;20202;-90
2022/06/04 02:17:40;;;;;;;1.42;1.35;;;19.80;99.90;;;;;;5033462;28;20230;-89
2022/06/04 02:20:09;;;;;;;1.77;1.67;;;19.80;99.90;;;;;;5033247;28;20221;-90
2022/06/04 02:22:38;;;;;;;2.13;2.03;;;19.80;99.90;;;;;;5033541;28;20222;-89
2022/06/04 02:25:10;;;;;;;1.88;1.77;;;19.80;99.90;;;;;;5033290;28;20230;-89
2022/06/04 02:27:41;;;;;;;3.40;2.25;;;19.80;99.90;;;;;;5033416;28;20230;-89
2022/06/04 02:30:11;;;;;;;1.92;1.83;;;19.80;99.90;;;;;;5032938;28;20202;-89
2022/06/04 02:32:49;;;;;;;1.80;1.70;;;19.80;99.90;;;;;;5032924;28;20272;-88
2022/06/04 02:35:22;;;;;;;2.05;1.50;;;19.70;99.90;;;;;;5033498;28;20194;-89
2022/06/04 02:37:58;;;;;;;2.00;1.90;;;19.70;99.90;;;;;;5032903;28;20237;-89
2022/06/04 02:40:32;;;;;;;2.90;1.95;;;19.70;99.90;;;;;;5033103;28;20222;-89
2022/06/04 02:43:10;;;;;;;2.28;1.80;;;19.70;99.90;;;;;;5032989;28;20257;-88
2022/06/04 02:45:43;;;;;;;1.80;1.70;;;19.70;99.90;;;;;;5033404;28;20285;-89
2022/06/04 02:48:16;;;;;;;1.17;1.17;;;19.70;99.90;;;;;;5033449;28;20246;-88
2022/06/04 02:50:48;;;;;;;2.42;1.92;;;19.60;99.90;;;;;;5032808;28;20233;-88
2022/06/04 02:53:19;;;;;;;1.70;1.60;;;19.60;99.90;;;;;;5032854;28;20245;-88
2022/06/04 02:55:51;;;;;;;2.17;1.67;;;19.60;99.90;;;;;;5033073;28;20260;-88
2022/06/04 02:58:22;;;;;;;1.60;1.50;;;19.60;99.90;;;;;;5032738;28;20264;-89
2022/06/04 03:00:54;;;;;;;2.13;1.67;;;19.60;99.90;;;;;;5032165;28;20230;-89
2022/06/04 03:03:23;;;;;;;1.55;1.45;;;19.60;99.90;;;;;;5032790;28;20273;-89
2022/06/04 03:05:54;;;;;;;1.77;1.67;;;19.60;99.90;;;;;;5033701;28;20266;-89
2022/06/04 03:08:24;;;;;;;1.98;1.88;;;19.60;99.90;;;;;;5036619;28;20246;-88
2022/06/04 03:10:52;;;;;;;2.17;1.98;;;19.60;99.90;;;;;;5036973;28;20289;-88
2022/06/04 03:13:22;;;;;;;2.15;1.95;;;19.60;99.90;;;;;;5035762;28;20296;-88
2022/06/04 03:15:51;;;;;;;1.40;1.33;;;19.60;99.90;;;;;;5037197;28;20298;-88
2022/06/04 03:18:20;;;;;;;1.83;1.73;;;19.60;99.90;;;;;;5037211;28;20269;-89
2022/06/04 03:20:49;;;;;;;1.95;1.85;;;19.50;99.90;;;;;;5036485;28;20263;-89
2022/06/04 03:23:17;;;;;;;1.80;1.70;;;19.50;99.90;;;;;;5036493;28;20262;-89
2022/06/04 03:25:45;;;;;;;2.28;2.08;;;19.60;99.90;;;;;;5036424;28;20230;-89
2022/06/04 03:28:14;;;;;;;1.98;1.80;;;19.50;99.90;;;;;;5036734;28;20268;-88
2022/06/04 03:30:43;;;;;;;1.60;1.50;;;19.50;99.90;;;;;;5036660;28;20206;-88
2022/06/04 03:33:12;;;;;;;2.92;1.70;;;19.50;99.90;;;;;;5036206;28;20269;-88
2022/06/04 03:35:42;;;;;;;11.90;2.00;;;19.50;99.90;;;;;;5036203;28;20237;-88
2022/06/04 03:38:11;;;;;;;1.63;1.52;;;19.50;99.90;;;;;;5036326;28;20227;-89
2022/06/04 03:40:40;;;;;;;2.85;2.28;;;19.50;99.90;;;;;;5036336;28;20206;-89
2022/06/04 03:43:08;;;;;;;2.08;1.98;;;19.50;99.90;;;;;;5036162;28;20294;-89
2022/06/04 03:45:36;;;;;;;2.10;1.90;;;19.60;99.90;;;;;;5036126;28;20194;-88
2022/06/04 03:48:07;;;;;;;1.80;1.70;;;19.60;99.90;;;;;;5035547;28;20249;-89
2022/06/04 03:50:35;;;;;;;1.98;1.88;;;19.60;99.90;;;;;;5035871;28;20248;-88
2022/06/04 03:53:04;;;;;;;2.22;1.48;;;19.60;99.90;;;;;;5035560;28;20253;-89
2022/06/04 03:55:32;;;;;;;1.65;1.55;;;19.60;99.90;;;;;;5036219;28;20222;-89
2022/06/04 03:58:01;;;;;;;3.35;1.90;;;19.70;99.90;;;;;;5035219;28;20253;-89
2022/06/04 04:00:32;;;;;;;2.67;2.10;;;19.70;99.90;;;;;;5035768;28;20289;-89
2022/06/04 04:03:13;;;;;;;2.70;1.73;;;19.70;99.90;;;;;;5035506;28;20202;-88
2022/06/04 04:05:47;;;;;;;2.08;1.85;;;19.70;99.90;;;;;;5035306;28;20197;-88
2022/06/04 04:08:16;;;;;;;1.75;1.65;;;19.80;99.90;;;;;;5036003;28;20230;-88
2022/06/04 04:10:46;;;;;;;2.92;1.92;;;19.80;99.90;;;;;;5035606;28;20272;-89
2022/06/04 04:13:16;;;;;;;5.93;1.95;;;19.80;99.90;;;;;;5035072;28;20268;-88
2022/06/04 04:15:45;;;;;;;1.75;1.65;;;19.90;99.90;;;;;;5035557;28;20259;-89
2022/06/04 04:18:15;;;;;;;1.65;1.55;;;19.80;99.90;;;;;;5034626;28;20233;-89
2022/06/04 04:20:47;;;;;;;1.80;1.70;;;19.90;99.90;;;;;;5015826;28;20207;-89
2022/06/04 04:23:15;;;;;;;2.20;1.83;;;20.00;99.90;;;;;;5035027;28;20199;-90
2022/06/04 04:25:44;;;;;;;1.70;1.60;;;20.00;99.90;;;;;;5035593;28;20297;-89
2022/06/04 04:28:12;;;;;;;1.63;1.52;;;20.10;99.90;;;;;;5035203;28;20238;-88
2022/06/04 04:30:41;;;;;;;1.70;1.60;;;20.10;99.90;;;;;;5035367;28;20282;-88
2022/06/04 04:33:09;;;;;;;1.92;1.73;;;20.20;99.90;;;;;;5034976;28;20305;-88
2022/06/04 04:35:39;;;;;;;3.65;1.85;;;20.20;99.90;;;;;;5035658;28;20230;-89
2022/06/04 04:38:07;;;;;;;1.65;1.55;;;20.20;99.90;;;;;;5035044;28;20218;-89
2022/06/04 04:40:36;;;;;;;1.88;1.33;;;20.30;99.90;;;;;;5035275;28;20199;-89
2022/06/04 04:43:04;;;;;;;2.53;1.63;;;20.40;99.90;;;;;;5035011;28;20262;-89
2022/06/04 04:45:33;;;;;;;2.08;1.77;;;20.50;99.90;;;;;;5035086;28;20202;-88
2022/06/04 04:48:01;;;;;;;1.65;1.55;;;20.60;99.90;;;;;;5034900;28;20222;-89
2022/06/04 04:50:33;;;;;;;1.63;1.52;;;20.70;99.90;;;;;;5034889;28;20217;-88
2022/06/04 04:53:06;;;;;;;1.95;1.85;;;20.80;99.90;;;;;;5030338;28;20248;-88
2022/06/04 04:55:35;;;;;;;1.63;1.52;;;20.90;99.90;;;;;;5034394;28;20207;-89
2022/06/04 04:58:04;;;;;;;2.05;1.60;;;21.00;99.90;;;;;;5034190;28;20301;-89
2022/06/04 05:00:33;;;;;;;2.75;1.90;;;21.10;99.90;;;;;;5014677;28;20238;-90
2022/06/04 05:03:03;;;;;;;1.65;1.55;;;21.20;99.90;;;;;;5018114;28;20190;-89
2022/06/04 05:05:32;;;;;;;1.67;1.58;;;21.20;99.90;;;;;;5034596;28;20210;-89
2022/06/04 05:08:01;;;;;;;1.55;1.45;;;21.30;99.90;;;;;;5034470;28;20233;-89
2022/06/04 05:10:31;;;;;;;1.88;1.67;;;21.40;99.90;;;;;;5034468;28;20206;-89
2022/06/04 05:12:59;;;;;;;2.75;1.60;;;21.50;99.90;;;;;;5034459;28;20294;-89
2022/06/04 05:15:28;;;;;;;1.77;1.50;;;21.60;99.90;;;;;;5034891;28;20260;-89
2022/06/04 05:17:56;;;;;;;2.15;1.75;;;21.60;99.90;;;;;;5034551;28;20249;-89
2022/06/04 05:20:25;;;;;;;1.63;1.52;;;21.70;99.90;;;;;;5034091;28;20202;-88
2022/06/04 05:22:53;;;;;;;1.50;1.40;;;21.80;99.90;;;;;;5034066;28;20202;-88
2022/06/04 05:25:22;;;;;;;1.55;1.45;;;21.80;99.90;;;;;;5034253;28;20221;-89
2022/06/04 05:27:52;;;;;;;2.72;1.38;;;21.80;99.90;;;;;;5033929;28;20264;-88
2022/06/04 05:30:20;;;;;;;1.35;1.25;;;21.70;99.90;;;;;;5019179;28;20207;-87
2022/06/04 05:32:48;;;;;;;2.53;1.60;;;21.70;99.90;;;;;;5034134;28;20206;-87
2022/06/04 05:35:17;;;;;;;1.50;1.40;;;21.60;99.90;;;;;;5033833;28;20249;-87
2022/06/04 05:37:45;;;;;;;1.52;1.40;;;21.60;99.90;;;;;;5033961;28;20226;-88
2022/06/04 05:40:14;;;;;;;3.72;2.00;;;21.50;99.90;;;;;;5033207;28;20301;-88
2022/06/04 05:42:43;;;;;;;1.60;1.50;;;21.50;99.90;;;;;;5033943;28;20234;-88
2022/06/04 05:45:13;;;;;;;1.65;1.48;;;21.50;99.90;;;;;;5036924;28;20197;-87
2022/06/04 05:47:42;;;;;;;1.50;1.40;;;21.50;99.90;;;;;;5041725;28;20282;-88
2022/06/04 05:50:12;;;;;;;1.92;1.52;;;21.50;99.90;;;;;;5036126;28;20332;-88
2022/06/04 05:52:43;;;;;;;11.68;1.70;;;21.70;99.90;;;;;;5053607;28;20248;-88
2022/06/04 05:55:12;;;;;;;1.55;1.45;;;21.80;99.90;;;;;;5053297;28;20249;-88
2022/06/04 05:57:40;;;;;;;1.65;1.40;;;21.90;99.90;;;;;;5053399;28;20272;-88
2022/06/04 06:00:14;;;;;;;2.40;1.75;;;21.80;99.90;;;;;;5053640;28;20270;-88
2022/06/04 06:02:42;;;;;;;2.30;1.85;;;21.80;99.90;;;;;;5053285;28;20209;-88
2022/06/04 06:05:10;;;;;;;1.83;1.73;;;21.80;99.90;;;;;;5053411;28;20341;-88
2022/06/04 06:07:38;;;;;;;2.08;1.83;;;21.80;99.90;;;;;;5053584;28;20217;-88
2022/06/04 06:10:07;;;;;;;1.58;1.48;;;21.80;99.90;;;;;;5051773;28;20198;-87
2022/06/04 06:12:35;;;;;;;1.88;1.77;;;21.80;99.90;;;;;;5033890;28;20256;-88
2022/06/04 06:15:05;;;;;;;1.50;1.40;;;21.90;99.90;;;;;;5033307;28;20268;-88
2022/06/04 06:17:35;;;;;;;3.88;1.48;;;22.00;99.90;;;;;;5033813;28;20202;-87
2022/06/04 06:20:06;;;;;;;1.77;1.60;;;22.10;99.90;;;;;;5032525;28;20225;-88
2022/06/04 06:22:35;;;;;;;1.30;1.25;;;22.30;99.90;;;;;;5033442;28;20262;-87
2022/06/04 06:25:50;;;;;;;1.85;1.75;;;22.40;99.90;;;;;;5033254;28;20202;-92
2022/06/04 06:28:18;;;;;;;1.65;1.55;;;22.60;99.90;;;;;;5033154;28;20227;-94
2022/06/04 06:30:56;;;;;;;2.53;1.70;;;22.80;99.90;;;;;;5033062;28;20209;-93
2022/06/04 06:33:33;;;;;;;3.53;1.45;;;22.90;99.90;;;;;;5033534;28;20199;-92
2022/06/04 06:36:03;;;;;;;1.65;1.55;;;22.90;99.90;;;;;;5033642;28;20279;-93
2022/06/04 06:38:32;;;;;;;1.30;1.20;;;23.00;99.90;;;;;;5033406;28;20272;-95
2022/06/04 06:41:01;;;;;;;1.73;1.23;;;23.00;99.90;;;;;;5032755;28;20214;-93
2022/06/04 06:43:33;;;;;;;1.77;1.67;;;22.90;99.90;;;;;;5033084;28;20230;-93
2022/06/04 06:46:04;;;;;;;1.77;1.55;;;22.90;99.90;;;;;;5032233;28;20202;-92
2022/06/04 06:48:35;;;;;;;1.20;1.15;;;23.20;99.90;;;;;;5032786;28;20226;-94
2022/06/04 06:51:07;;;;;;;1.80;1.45;;;23.40;99.90;;;;;;5033433;28;20222;-94
2022/06/04 06:53:36;;;;;;;2.15;1.85;;;23.60;99.90;;;;;;5033052;28;20202;-95
2022/06/04 06:56:12;;;;;;;1.60;1.50;;;23.70;99.90;;;;;;5033081;28;20318;-93
2022/06/04 06:58:40;;;;;;;2.63;1.55;;;23.80;99.90;;;;;;5033598;28;20229;-94
2022/06/04 07:01:09;;;;;;;2.45;1.42;;;23.90;99.90;;;;;;5033644;28;20194;-94
2022/06/04 07:03:40;;;;;;;1.35;1.30;;;23.90;99.90;;;;;;5032553;28;20202;-93
2022/06/04 07:06:12;;;;;;;1.70;1.60;;;23.90;99.90;;;;;;5033306;28;20268;-94
2022/06/04 07:08:42;;;;;;;1.60;1.50;;;24.00;99.90;;;;;;5032752;28;20232;-94
2022/06/04 07:11:11;;;;;;;1.40;1.30;;;24.30;99.90;;;;;;5033155;28;20210;-93
2022/06/04 07:13:39;;;;;;;2.00;1.90;;;24.50;99.90;;;;;;5032876;28;20293;-93
2022/06/04 07:16:07;;;;;;;1.67;1.58;;;24.70;99.90;;;;;;5032427;28;20245;-92
2022/06/04 07:18:36;;;;;;;7.22;2.13;;;25.20;99.90;;;;;;5038939;28;20222;-93
2022/06/04 07:21:06;;;;;;;1.50;1.40;;;25.60;99.90;;;;;;5034264;28;20206;-94
2022/06/04 07:23:36;;;;;;;1.83;1.70;;;26.30;99.90;;;;;;5032994;28;20257;-95
2022/06/04 07:26:05;;;;;;;1.75;1.63;;;27.00;99.90;;;;;;5033026;28;20207;-95
2022/06/04 07:28:33;;;;;;;2.20;1.60;;;27.60;99.90;;;;;;5032765;28;20218;-94
2022/06/04 07:31:02;;;;;;;6.72;1.92;;;28.50;99.90;;;;;;5032825;28;20199;-95
2022/06/04 07:33:30;;;;;;;4.97;1.50;;;29.00;99.90;;;;;;5032398;28;20297;-95
2022/06/04 07:35:59;;;;;;;1.60;1.50;;;29.50;99.90;;;;;;5032871;28;20288;-94
2022/06/04 07:38:29;;;;;;;1.98;1.88;;;29.80;99.90;;;;;;5032508;28;20313;-93
2022/06/04 07:40:57;;;;;;;2.55;1.83;;;29.80;99.90;;;;;;5032531;28;20230;-93
2022/06/04 07:43:26;;;;;;;1.67;1.58;;;29.60;99.90;;;;;;5032317;28;20222;-95
2022/06/04 07:45:54;;;;;;;4.93;1.85;;;29.70;99.90;;;;;;5032876;28;20205;-94
2022/06/04 07:48:23;;;;;;;1.48;1.38;;;30.30;99.90;;;;;;5032511;28;20253;-94
2022/06/04 07:50:55;;;;;;;2.58;1.65;;;30.40;99.90;;;;;;5032553;28;20206;-94
2022/06/04 07:53:23;;;;;;;1.75;1.65;;;30.60;99.90;;;;;;5033728;28;20206;-93
2022/06/04 07:55:53;;;;;;;2.03;1.83;;;30.80;99.90;;;;;;5036287;28;20248;-93
2022/06/04 07:58:25;;;;;;;2.17;1.98;;;31.70;99.70;;;;;;5035844;28;20225;-93
2022/06/04 08:00:55;;;;;;;2.00;1.88;;;32.60;97.40;;;;;;5036128;28;20202;-94
2022/06/04 08:03:24;;;;;;;2.38;1.75;;;33.20;95.40;;;;;;5036021;28;20201;-94
2022/06/04 08:05:53;;;;;;;1.73;1.63;;;33.80;94.50;;;;;;5035806;28;20198;-94
2022/06/04 08:08:36;;;;;;;2.35;1.73;;;33.40;91.90;;;;;;5036096;28;20245;-94
2022/06/04 08:13:48;;;;;;;1.80;1.70;;;32.80;91.90;;;;;;5035524;28;20233;-93
2022/06/04 08:16:17;;;;;;;2.08;1.70;;;32.90;92.00;;;;;;5035739;28;20230;-94
2022/06/04 08:18:46;;;;;;;1.67;1.58;;;33.40;92.20;;;;;;5035252;28;20233;-96
2022/06/04 08:21:15;;;;;;;1.70;1.60;;;34.40;90.80;;;;;;5035088;28;20229;-93
2022/06/04 08:23:44;;;;;;;2.13;1.90;;;35.70;86.70;;;;;;5035621;28;20202;-93
2022/06/04 08:26:15;;;;;;;2.08;1.77;;;35.50;84.50;;;;;;5035766;28;20276;-88
2022/06/04 08:28:43;;;;;;;1.90;1.80;;;35.80;81.10;;;;;;5035282;28;20304;-88
2022/06/04 08:31:13;;;;;;;1.80;1.70;;;35.70;81.70;;;;;;5034929;28;20202;-86
2022/06/04 08:33:42;;;;;;;2.15;1.98;;;35.30;78.90;;;;;;5033646;28;20194;-87
2022/06/04 08:36:15;;;;;;;1.90;1.80;;;35.20;78.80;;;;;;5035086;28;20226;-86
2022/06/04 08:38:45;;;;;;;2.20;1.80;;;34.70;78.50;;;;;;5034715;28;20221;-87
2022/06/04 08:41:33;;;;;;;4.18;2.00;;;33.70;81.20;;;;;;5034832;28;20221;-87
2022/06/04 08:44:05;;;;;;;3.25;2.38;;;32.20;83.70;;;;;;5035193;28;20202;-87
2022/06/04 08:46:40;;;;;;;1.58;1.42;;;31.40;86.90;;;;;;5035032;28;20237;-89
2022/06/04 08:49:17;;;;;;;1.73;1.63;;;31.30;86.40;;;;;;5035025;28;20240;-88
2022/06/04 08:51:46;;;;;;;2.25;1.83;;;31.70;88.10;;;;;;5034839;28;20210;-87
2022/06/04 09:00:00;;;;;;;2.15;1.92;;;33.60;83.00;;;;;;5035017;28;20280;-86
2022/06/04 09:02:39;;;;;;;2.40;2.03;;;34.00;81.20;;;;;;5034842;28;20205;-86
2022/06/04 09:05:16;;;;;;;1.60;1.50;;;35.10;81.10;;;;;;5034704;28;20235;-86
2022/06/04 09:07:49;;;;;;;7.88;1.98;;;35.70;77.70;;;;;;5035065;28;20267;-87
2022/06/04 09:10:22;;;;;;;1.67;1.58;;;35.90;75.20;;;;;;5034492;28;20257;-86
2022/06/04 09:12:57;;;;;;;1.80;1.65;;;36.10;75.90;;;;;;5034734;28;20228;-86
2022/06/04 09:15:31;;;;;;;1.75;1.65;;;36.10;73.90;;;;;;5034491;28;20278;-86
2022/06/04 09:18:04;;;;;;;1.75;1.65;;;35.90;73.10;;;;;;5034440;28;20225;-86
2022/06/04 09:20:38;;;;;;;1.48;1.38;;;36.30;72.00;;;;;;5034912;28;20229;-86
2022/06/04 09:23:14;;;;;;;2.22;1.73;;;36.50;72.00;;;;;;5034648;28;20202;-88
2022/06/04 09:25:48;;;;;;;3.38;1.42;;;36.70;69.90;;;;;;5034439;28;20228;-86
2022/06/04 09:28:27;;;;;;;1.55;1.45;;;37.20;67.60;;;;;;5034069;28;20253;-91
2022/06/04 09:31:09;;;;;;;1.63;1.52;;;37.10;67.50;;;;;;5031639;28;20210;-87
2022/06/04 09:33:52;;;;;;;1.38;1.27;;;36.30;71.90;;;;;;5033234;28;20261;-92
2022/06/04 09:36:25;;;;;;;1.67;1.50;;;36.60;71.00;;;;;;5032996;28;20269;-92
2022/06/04 09:38:59;;;;;;;1.38;1.30;;;37.10;66.20;;;;;;5033601;28;20225;-89
2022/06/04 09:41:30;;;;;;;1.90;1.30;;;36.80;68.80;;;;;;5033853;28;20202;-90
2022/06/04 09:44:14;;;;;;;1.63;1.52;;;36.90;66.40;;;;;;5033944;28;20205;-92
2022/06/04 09:46:44;;;;;;;3.47;1.60;;;37.70;66.70;;;;;;5033242;28;20258;-91
2022/06/04 09:49:31;;;;;;;2.22;1.67;;;37.40;62.50;;;;;;5033708;28;20267;-91
2022/06/04 09:52:00;;;;;;;1.58;1.48;;;37.60;63.40;;;;;;5033430;28;20236;-91
2022/06/04 09:54:32;;;;;;;1.50;1.40;;;36.70;61.80;;;;;;5034139;28;20293;-91
2022/06/04 09:57:04;;;;;;;1.27;1.20;;;36.70;64.20;;;;;;5033214;28;20226;-91
2022/06/04 09:59:35;;;;;;;1.88;1.25;;;37.00;62.60;;;;;;5033895;28;20316;-91
2022/06/04 10:02:18;;;;;;;1.70;1.58;;;37.50;61.30;;;;;;5034102;28;20263;-91
2022/06/04 10:04:49;;;;;;;1.45;1.35;;;37.10;59.60;;;;;;5034022;28;20201;-91
2022/06/04 10:07:31;;;;;;;1.00;1.00;;;36.40;60.40;;;;;;5033643;28;20402;-92
2022/06/04 10:10:02;;;;;;;1.42;1.33;;;36.60;61.80;;;;;;5033573;28;20210;-91
2022/06/04 10:15:42;;;;;;;1.30;1.20;;;35.70;61.30;;;;;;5032375;28;20205;-93
2022/06/04 10:18:24;;;;;;;1.40;1.30;;;35.50;62.90;;;;;;5033500;28;20287;-94
2022/06/04 10:20:59;;;;;;;1.35;1.25;;;35.00;62.90;;;;;;5033553;28;20226;-94
2022/06/04 10:23:29;;;;;;;1.40;1.30;;;34.70;64.20;;;;;;5033414;28;20260;-94
2022/06/04 10:26:31;;;;;;;4.30;1.35;;;34.30;64.10;;;;;;5033363;28;20231;-93
2022/06/04 10:29:26;;;;;;;1.60;1.42;;;33.70;66.80;;;;;;5033526;28;20225;-94
2022/06/04 10:32:05;;;;;;;1.95;1.52;;;34.20;65.80;;;;;;5032851;28;20212;-92
2022/06/04 10:34:40;;;;;;;1.58;1.48;;;34.90;65.00;;;;;;5033039;28;20225;-93
2022/06/04 10:37:25;;;;;;;1.65;1.55;;;35.30;64.60;;;;;;5033097;28;20217;-93
2022/06/04 10:40:06;;;;;;;1.80;1.23;;;35.70;64.80;;;;;;5033569;28;20197;-93
2022/06/04 10:43:04;;;;;;;2.28;1.42;;;36.10;62.50;;;;;;5032982;28;20213;-93
2022/06/04 10:45:39;;;;;;;2.65;1.67;;;36.20;62.70;;;;;;5033288;28;20217;-92
2022/06/04 10:48:17;;;;;;;2.58;1.83;;;35.80;61.70;;;;;;5013504;28;20221;-92
2022/06/04 10:53:55;;;;;;;2.17;1.55;;;36.00;63.00;;;;;;5033464;28;20293;-93
2022/06/04 10:56:30;;;;;;;1.08;1.08;;;36.30;61.20;;;;;;5033384;28;20305;-95
2022/06/04 10:59:04;;;;;;;6.55;1.77;;;36.30;61.40;;;;;;5032602;28;20311;-94
2022/06/04 11:01:43;;;;;;;2.67;1.65;;;35.90;61.10;;;;;;5033013;28;20197;-94
2022/06/04 11:04:22;;;;;;;2.40;1.52;;;35.70;62.50;;;;;;5033321;28;20205;-94
2022/06/04 11:07:05;;;;;;;2.28;1.60;;;35.70;62.40;;;;;;5033016;28;20201;-90
2022/06/04 11:09:38;;;;;;;1.45;1.35;;;36.20;62.90;;;;;;5033401;28;20293;-93
2022/06/04 11:12:20;;;;;;;2.75;1.60;;;36.60;63.60;;;;;;5033017;28;20201;-95
2022/06/04 11:14:54;;;;;;;2.95;1.75;;;37.20;62.10;;;;;;5032951;28;20259;-94
2022/06/04 11:17:26;;;;;;;1.77;1.52;;;37.60;58.60;;;;;;5032914;28;20226;-93
2022/06/04 11:20:00;;;;;;;2.10;1.20;;;37.70;58.60;;;;;;5033397;28;20296;-92
2022/06/04 11:22:37;;;;;;;1.77;1.67;;;37.50;58.30;;;;;;5033677;28;20209;-93
2022/06/04 11:25:24;;;;;;;2.13;1.42;;;37.00;59.60;;;;;;5034044;28;20212;-95
2022/06/04 11:27:59;;;;;;;2.22;1.40;;;37.10;60.30;;;;;;5036777;28;20226;-94
2022/06/04 11:30:49;;;;;;;1.35;1.25;;;37.30;58.50;;;;;;5043473;28;20198;-94
2022/06/04 11:33:28;;;;;;;1.30;1.20;;;36.90;58.50;;;;;;5043103;28;20268;-95
2022/06/04 11:36:18;;;;;;;2.35;1.70;;;37.00;61.40;;;;;;5037390;28;20220;-95
2022/06/04 11:42:10;;;;;;;1.70;1.52;;;37.20;58.90;;;;;;5058844;23;20229;-93
2022/06/04 12:53:09;;;;;;;2.78;1.70;;;34.60;63.50;;;;;;4992836;28;20211;-94
2022/06/04 12:55:50;;;;;;;1.70;1.60;;;34.50;63.30;;;;;;4994931;28;20294;-93
2022/06/04 12:59:21;;;;;;;2.63;2.10;;;34.30;63.70;;;;;;4994354;28;20227;-94
2022/06/04 13:02:03;;;;;;;2.45;1.60;;;33.60;76.50;;;;;;4994158;28;20269;-93
2022/06/04 13:04:42;;;;;;;2.00;1.90;;;33.30;68.50;;;;;;4994852;28;20294;-93
2022/06/04 13:07:24;;;;;;;2.20;1.70;;;33.30;66.80;;;;;;4994682;28;20212;-93
2022/06/04 13:10:04;;;;;;;1.80;1.70;;;33.60;67.00;;;;;;4994891;28;20214;-93
2022/06/04 13:12:38;;;;;;;2.13;1.80;;;33.60;66.60;;;;;;4994340;28;20294;-94
2022/06/04 13:15:21;;;;;;;1.60;1.50;;;33.90;67.10;;;;;;4994364;28;20207;-93
2022/06/04 13:17:55;;;;;;;2.47;1.85;;;34.10;66.50;;;;;;4994449;28;20286;-93
2022/06/04 13:20:42;;;;;;;3.63;1.80;;;33.90;64.50;;;;;;4994133;28;20207;-94
2022/06/04 13:23:31;;;;;;;2.05;1.85;;;33.40;65.20;;;;;;4994799;28;20200;-94
2022/06/04 13:26:42;;;;;;;3.17;1.90;;;33.00;64.70;;;;;;4994428;28;20212;-94
2022/06/04 13:29:41;;;;;;;2.40;1.95;;;32.80;75.50;;;;;;4994308;28;20227;-95
2022/06/04 13:32:22;;;;;;;1.67;1.50;;;32.40;75.50;;;;;;4993942;28;20207;-95
2022/06/04 13:34:54;;;;;;;8.38;1.95;;;32.30;75.00;;;;;;4994238;28;20211;-94
2022/06/04 13:37:52;;;;;;;2.30;1.58;;;32.20;70.90;;;;;;4993685;28;20233;-96
2022/06/04 13:40:29;;;;;;;1.52;1.42;;;32.20;72.40;;;;;;4993656;28;20254;-96
2022/06/04 13:43:30;;;;;;;1.52;1.42;;;32.00;73.00;;;;;;4993581;28;20286;-96
2022/06/04 13:49:37;;;;;;;1.88;1.77;;;31.90;71.40;;;;;;4974244;28;20238;-96
2022/06/04 13:52:47;;;;;;;1.65;1.55;;;31.60;70.60;;;;;;4992761;28;20294;-96
2022/06/04 13:56:16;;;;;;;1.58;1.48;;;31.20;75.30;;;;;;4908740;29;20289;-96
2022/06/04 15:47:50;;;;;;;4.18;1.88;;;30.50;70.70;;;;;;5995156;23;20218;-96
2022/06/04 15:56:48;;;;;;;1.48;1.38;;;30.40;72.70;;;;;;4915750;29;20215;-95
2022/06/04 15:59:24;;;;;;;2.15;1.85;;;29.40;77.90;;;;;;4916079;29;20297;-92
2022/06/04 16:02:18;;;;;;;3.78;1.92;;;28.40;80.00;;;;;;4917920;29;20214;-96
2022/06/04 16:08:31;;;;;;;1.45;1.35;;;26.70;87.20;;;;;;4920238;29;20246;-96
2022/06/04 16:11:51;;;;;;;1.60;1.50;;;26.30;90.60;;;;;;4923095;29;20226;-96
2022/06/04 16:15:12;;;;;;;1.25;1.15;;;26.10;89.10;;;;;;4882433;29;20221;-95
2022/06/04 16:25:40;;;;;;;2.67;1.40;;;26.20;86.60;;;;;;4918393;29;20214;-96
2022/06/04 16:36:42;;;;;;;4.38;1.90;;;26.60;82.40;;;;;;4828821;29;20231;-96
2022/06/04 19:13:41;;;;;;;2.35;2.15;;;22.10;99.90;;;;;;4993441;28;20212;-94
2022/06/04 19:16:12;;;;;;;4.72;2.42;;;21.60;99.90;;;;;;4994121;28;20212;-94
2022/06/04 19:18:43;;;;;;;3.22;2.78;;;21.40;99.90;;;;;;4993021;28;20238;-95
2022/06/04 19:26:46;;;;;;;4.22;3.20;;;20.80;99.90;;;;;;4993743;28;20212;-95
2022/06/04 19:29:16;;;;;;;7.18;3.15;;;20.60;99.90;;;;;;4993278;28;20254;-95
2022/06/04 19:31:49;;;;;;;4.03;3.22;;;20.50;99.90;;;;;;4992892;28;20204;-95
2022/06/04 19:34:23;;;;;;;3.67;3.38;;;20.50;99.90;;;;;;4993315;28;20211;-94
2022/06/04 19:36:58;;;;;;;3.28;2.97;;;20.40;99.90;;;;;;4993904;28;20211;-95
2022/06/04 19:39:35;;;;;;;4.43;3.15;;;20.30;99.90;;;;;;4993510;28;20294;-95
2022/06/04 19:42:18;;;;;;;4.07;3.78;;;20.30;99.90;;;;;;4993919;28;20208;-96
2022/06/04 19:44:56;;;;;;;3.08;2.78;;;20.20;99.90;;;;;;4994606;28;20207;-96
2022/06/04 19:51:12;;;;;;;4.35;3.95;;;20.10;99.90;;;;;;4997620;28;20214;-96
2022/06/04 19:56:47;;;;;;;4.15;3.85;;;20.20;99.90;;;;;;4997952;28;20234;-96
2022/06/04 20:02:18;;;;;;;4.50;4.10;;;20.00;99.90;;;;;;4997276;28;20206;-96
2022/06/04 20:05:13;;;;;;;4.20;3.80;;;20.10;99.90;;;;;;4998000;28;20235;-95
2022/06/04 20:08:23;;;;;;;4.43;4.03;;;20.10;99.90;;;;;;4999386;28;20243;-96